Time;durP1;ratioP1;P1;durP2;ratioP2;P2;SDS_P1;SDS_P2;PMS_P1;PMS_P2;Temp;Humidity;BMP_temperature;BMP_pressure;BME280_temperature;BME280_humidity;BME280_pressure;Samples;Min_cycle;Max_cycle;Signal;HPM_P1;HPM_P2
2023/07/03 00:02:25;;;;;;;3.60;1.70;;;12.00;99.90;;;;;;5074969;28;20071;-92
2023/07/03 00:04:50;;;;;;;5.70;1.48;;;12.00;99.90;;;;;;5073563;28;20021;-91
2023/07/03 00:07:16;;;;;;;7.10;1.27;;;12.00;99.90;;;;;;5073356;28;20233;-92
2023/07/03 00:09:42;;;;;;;10.32;1.48;;;12.00;99.90;;;;;;5073675;28;20035;-93
2023/07/03 00:12:10;;;;;;;6.75;2.05;;;12.10;99.90;;;;;;5073362;28;20051;-91
2023/07/03 00:14:36;;;;;;;4.07;1.10;;;12.10;99.90;;;;;;5074396;28;20432;-92
2023/07/03 00:17:01;;;;;;;6.20;1.20;;;12.00;99.90;;;;;;5073069;28;20017;-92
2023/07/03 00:19:30;;;;;;;4.03;1.30;;;12.00;99.90;;;;;;5072739;28;20082;-92
2023/07/03 00:22:00;;;;;;;5.88;1.13;;;12.00;99.90;;;;;;5073225;28;20028;-91
2023/07/03 00:24:28;;;;;;;5.10;1.02;;;11.90;99.90;;;;;;5074473;28;20020;-91
2023/07/03 00:26:55;;;;;;;8.68;1.35;;;11.90;99.90;;;;;;5073941;28;20127;-90
2023/07/03 00:29:20;;;;;;;8.25;1.55;;;11.90;99.90;;;;;;5072970;28;20017;-91
2023/07/03 00:31:46;;;;;;;4.60;1.65;;;11.80;99.90;;;;;;5073182;28;20385;-91
2023/07/03 00:34:12;;;;;;;8.25;2.15;;;11.80;99.90;;;;;;5073901;28;20449;-92
2023/07/03 00:36:37;;;;;;;3.22;1.00;;;11.70;99.90;;;;;;5074192;28;20021;-90
2023/07/03 00:39:04;;;;;;;7.00;1.40;;;11.70;99.90;;;;;;5093863;28;20250;-90
2023/07/03 00:41:30;;;;;;;4.03;1.23;;;11.70;99.90;;;;;;5092500;28;20052;-91
2023/07/03 00:43:56;;;;;;;2.63;1.02;;;11.60;99.90;;;;;;5069726;28;20025;-91
2023/07/03 00:46:22;;;;;;;7.22;1.10;;;11.60;99.90;;;;;;5073505;28;20481;-91
2023/07/03 00:48:47;;;;;;;6.72;1.30;;;11.60;99.90;;;;;;5072240;28;20028;-93
2023/07/03 00:51:15;;;;;;;7.05;1.10;;;11.60;99.90;;;;;;5072368;28;20024;-92
2023/07/03 00:53:41;;;;;;;7.05;1.20;;;11.60;99.90;;;;;;5073698;28;20028;-91
2023/07/03 00:56:07;;;;;;;6.80;1.00;;;11.50;99.90;;;;;;5072551;28;20504;-91
2023/07/03 00:58:33;;;;;;;4.90;0.93;;;11.60;99.90;;;;;;5076563;28;20074;-92
2023/07/03 01:01:37;;;;;;;4.38;1.15;;;11.60;99.90;;;;;;5088421;28;20043;-92
2023/07/03 01:04:44;;;;;;;8.52;0.90;;;11.60;99.90;;;;;;5073693;28;20502;-93
2023/07/03 01:07:17;;;;;;;5.07;1.30;;;11.60;99.90;;;;;;5071143;28;20025;-92
2023/07/03 01:09:51;;;;;;;7.45;1.20;;;11.60;99.90;;;;;;5054699;28;20185;-91
2023/07/03 01:12:20;;;;;;;5.32;1.00;;;11.50;99.90;;;;;;5053507;28;20516;-91
2023/07/03 01:14:46;;;;;;;4.63;1.10;;;11.50;99.90;;;;;;5054713;28;20028;-91
2023/07/03 01:17:14;;;;;;;5.07;0.90;;;11.50;99.90;;;;;;5054317;28;20027;-92
2023/07/03 01:19:42;;;;;;;6.50;1.10;;;11.50;99.90;;;;;;5054398;28;20024;-91
2023/07/03 01:22:21;;;;;;;4.40;0.90;;;11.50;99.90;;;;;;5071505;28;20064;-92
2023/07/03 01:24:55;;;;;;;6.93;1.55;;;11.50;99.90;;;;;;5072608;28;20036;-92
2023/07/03 01:27:24;;;;;;;4.15;0.93;;;11.40;99.90;;;;;;5054475;28;20040;-92
2023/07/03 01:29:51;;;;;;;6.93;1.80;;;11.40;99.90;;;;;;5055001;28;20082;-91
2023/07/03 01:32:23;;;;;;;4.88;1.70;;;11.50;99.90;;;;;;5053872;28;20020;-93
2023/07/03 01:34:53;;;;;;;3.13;1.00;;;11.40;99.90;;;;;;5053996;28;20064;-92
2023/07/03 01:37:23;;;;;;;5.85;1.60;;;11.40;99.90;;;;;;5071457;28;20107;-92
2023/07/03 01:39:51;;;;;;;5.70;1.52;;;11.40;99.90;;;;;;5084443;28;20052;-92
2023/07/03 01:42:18;;;;;;;7.85;1.10;;;11.40;99.90;;;;;;5072956;28;20083;-90
2023/07/03 01:44:44;;;;;;;3.47;1.00;;;11.40;99.90;;;;;;5071936;28;20594;-93
2023/07/03 01:47:13;;;;;;;4.85;1.35;;;11.40;99.90;;;;;;5072083;28;20063;-92
2023/07/03 01:49:39;;;;;;;6.10;1.20;;;11.30;99.90;;;;;;5072241;28;20024;-91
2023/07/03 01:52:18;;;;;;;4.95;0.95;;;11.30;99.90;;;;;;5072875;28;20086;-92
2023/07/03 01:54:55;;;;;;;10.30;2.25;;;11.30;99.90;;;;;;5075454;28;20025;-91
2023/07/03 01:57:35;;;;;;;9.65;1.10;;;11.30;99.90;;;;;;5077671;28;20047;-92
2023/07/03 02:00:04;;;;;;;7.38;3.67;;;11.30;99.90;;;;;;5077129;28;20040;-88
2023/07/03 02:02:30;;;;;;;6.28;1.25;;;11.30;99.90;;;;;;5075767;28;20053;-92
2023/07/03 02:05:03;;;;;;;8.90;1.42;;;11.30;99.90;;;;;;5075359;28;20021;-91
2023/07/03 02:07:30;;;;;;;7.22;1.38;;;11.30;99.90;;;;;;5074742;28;20028;-92
2023/07/03 02:09:56;;;;;;;5.45;1.15;;;11.30;99.90;;;;;;5075751;28;20017;-92
2023/07/03 02:12:22;;;;;;;3.95;1.30;;;11.30;99.90;;;;;;5075168;28;20039;-91
2023/07/03 02:14:48;;;;;;;6.97;1.70;;;11.30;99.90;;;;;;5084526;28;20028;-91
2023/07/03 02:17:13;;;;;;;6.90;1.30;;;11.30;99.90;;;;;;5087368;28;20032;-92
2023/07/03 02:19:40;;;;;;;4.82;1.27;;;11.30;99.90;;;;;;5085583;28;20102;-91
2023/07/03 02:22:06;;;;;;;6.40;1.23;;;11.40;99.90;;;;;;5075670;28;20028;-91
2023/07/03 02:24:32;;;;;;;7.32;1.80;;;11.40;99.90;;;;;;5075629;28;20032;-90
2023/07/03 02:26:58;;;;;;;6.60;1.20;;;11.40;99.90;;;;;;5075267;28;20025;-90
2023/07/03 02:29:23;;;;;;;11.05;2.08;;;11.40;99.90;;;;;;5075975;28;20024;-91
2023/07/03 02:31:49;;;;;;;8.27;1.33;;;11.40;99.90;;;;;;5075455;28;20255;-90
2023/07/03 02:34:15;;;;;;;8.77;2.00;;;11.40;99.90;;;;;;5076788;28;20032;-90
2023/07/03 02:36:41;;;;;;;9.30;2.17;;;11.40;99.90;;;;;;5078167;28;20021;-90
2023/07/03 02:39:07;;;;;;;6.07;1.83;;;11.30;99.90;;;;;;5077584;28;20087;-91
2023/07/03 02:41:33;;;;;;;6.53;2.03;;;11.30;99.90;;;;;;5077867;28;20020;-89
2023/07/03 02:43:59;;;;;;;8.90;2.00;;;11.30;99.90;;;;;;5077826;28;20052;-90
2023/07/03 02:46:25;;;;;;;5.05;1.70;;;11.30;99.90;;;;;;5079412;28;20036;-90
2023/07/03 02:48:50;;;;;;;3.10;1.48;;;11.30;99.90;;;;;;5075560;28;20031;-90
2023/07/03 02:51:16;;;;;;;9.60;1.58;;;11.30;99.90;;;;;;5076527;28;20032;-90
2023/07/03 02:53:42;;;;;;;8.25;1.50;;;11.20;99.90;;;;;;5075005;28;20030;-89
2023/07/03 02:56:08;;;;;;;3.97;1.60;;;11.20;99.90;;;;;;5074993;28;20025;-90
2023/07/03 02:58:34;;;;;;;6.28;1.38;;;11.20;99.90;;;;;;5074323;28;20029;-90
2023/07/03 03:01:01;;;;;;;7.97;1.45;;;11.20;99.90;;;;;;5075346;28;20046;-90
2023/07/03 03:03:27;;;;;;;7.00;1.63;;;11.10;99.90;;;;;;5075050;28;20040;-90
2023/07/03 03:05:55;;;;;;;6.68;1.27;;;11.10;99.90;;;;;;5075952;28;20111;-89
2023/07/03 03:08:24;;;;;;;4.80;1.30;;;11.10;99.90;;;;;;5075642;28;20077;-89
2023/07/03 03:10:51;;;;;;;6.38;1.55;;;11.10;99.90;;;;;;5075866;28;20017;-90
2023/07/03 03:13:17;;;;;;;5.85;1.27;;;11.10;99.90;;;;;;5075969;28;20029;-90
2023/07/03 03:15:43;;;;;;;9.30;1.60;;;11.10;99.90;;;;;;5075871;28;20044;-89
2023/07/03 03:18:09;;;;;;;4.72;1.40;;;11.10;99.90;;;;;;5074620;28;20036;-90
2023/07/03 03:20:35;;;;;;;6.80;1.60;;;11.10;99.90;;;;;;5074745;28;20020;-90
2023/07/03 03:23:01;;;;;;;8.48;1.90;;;11.10;99.90;;;;;;5074329;28;20047;-90
2023/07/03 03:25:27;;;;;;;7.60;1.58;;;11.10;99.90;;;;;;5074371;28;20111;-90
2023/07/03 03:27:53;;;;;;;4.72;1.85;;;11.10;99.90;;;;;;5074689;28;20048;-90
2023/07/03 03:30:18;;;;;;;3.72;1.67;;;11.10;99.90;;;;;;5074489;28;20025;-92
2023/07/03 03:32:44;;;;;;;5.18;1.40;;;11.00;99.90;;;;;;5074501;28;20123;-90
2023/07/03 03:35:10;;;;;;;6.20;1.63;;;11.00;99.90;;;;;;5073665;28;20486;-90
2023/07/03 03:37:36;;;;;;;6.35;2.08;;;11.00;99.90;;;;;;5074212;28;20074;-90
2023/07/03 03:40:03;;;;;;;6.88;2.00;;;11.00;99.90;;;;;;5074657;28;20033;-90
2023/07/03 03:42:29;;;;;;;6.50;1.95;;;11.10;99.90;;;;;;5073785;28;20105;-90
2023/07/03 03:44:55;;;;;;;10.88;2.70;;;11.10;99.90;;;;;;5075153;28;20498;-90
2023/07/03 03:47:21;;;;;;;5.57;1.70;;;11.10;99.90;;;;;;5074644;28;20029;-90
2023/07/03 03:49:48;;;;;;;9.00;2.20;;;11.10;99.90;;;;;;5073796;28;20066;-89
2023/07/03 03:52:13;;;;;;;8.13;1.83;;;11.10;99.90;;;;;;5073650;28;20036;-90
2023/07/03 03:54:39;;;;;;;6.25;1.67;;;11.10;99.90;;;;;;5074765;28;20025;-90
2023/07/03 03:57:05;;;;;;;4.88;1.70;;;11.10;99.90;;;;;;5071793;28;20229;-90
2023/07/03 03:59:31;;;;;;;4.80;2.22;;;11.00;99.90;;;;;;5074708;28;20024;-90
2023/07/03 04:01:56;;;;;;;3.55;1.45;;;11.00;99.90;;;;;;5072937;28;20055;-91
2023/07/03 04:04:22;;;;;;;11.90;2.20;;;11.00;99.90;;;;;;5074324;28;20103;-91
2023/07/03 04:06:48;;;;;;;5.97;1.63;;;11.00;99.90;;;;;;5073160;28;20069;-89
2023/07/03 04:09:13;;;;;;;4.78;1.80;;;11.00;99.90;;;;;;5074209;28;20033;-90
2023/07/03 04:11:39;;;;;;;8.23;1.70;;;11.00;99.90;;;;;;5074277;28;20024;-90
2023/07/03 04:14:05;;;;;;;5.22;1.55;;;11.00;99.90;;;;;;5074705;28;20025;-90
2023/07/03 04:16:31;;;;;;;8.38;1.77;;;11.00;99.90;;;;;;5073222;28;20470;-89
2023/07/03 04:18:57;;;;;;;5.35;2.03;;;11.00;99.90;;;;;;5074620;28;20059;-90
2023/07/03 04:21:23;;;;;;;11.30;1.70;;;11.00;99.90;;;;;;5072989;28;20032;-90
2023/07/03 04:23:49;;;;;;;6.40;1.58;;;11.00;99.90;;;;;;5074130;28;20043;-90
2023/07/03 04:26:15;;;;;;;6.28;1.83;;;11.10;99.90;;;;;;5074940;28;20048;-90
2023/07/03 04:28:41;;;;;;;5.88;1.60;;;11.00;99.90;;;;;;5076781;28;20033;-90
2023/07/03 04:31:07;;;;;;;7.15;1.67;;;11.00;99.90;;;;;;5072952;28;20016;-90
2023/07/03 04:33:33;;;;;;;4.97;1.65;;;11.00;99.90;;;;;;5074443;28;20028;-91
2023/07/03 04:35:59;;;;;;;12.25;1.88;;;11.10;99.90;;;;;;5074184;28;20039;-91
2023/07/03 04:38:25;;;;;;;10.27;2.03;;;11.10;99.90;;;;;;5073410;28;20508;-91
2023/07/03 04:40:53;;;;;;;7.93;1.73;;;11.10;99.90;;;;;;5073116;28;20025;-89
2023/07/03 04:43:19;;;;;;;10.32;2.95;;;11.10;99.90;;;;;;5073995;28;20036;-90
2023/07/03 04:45:48;;;;;;;14.55;2.70;;;11.10;99.90;;;;;;5072199;28;20047;-89
2023/07/03 04:48:16;;;;;;;5.03;1.30;;;11.10;99.90;;;;;;5074362;28;20078;-91
2023/07/03 04:50:42;;;;;;;11.82;3.50;;;11.10;99.90;;;;;;5072832;28;20047;-93
2023/07/03 04:53:07;;;;;;;8.77;1.63;;;11.20;99.90;;;;;;5073454;28;20420;-91
2023/07/03 04:55:34;;;;;;;9.65;1.90;;;11.20;99.90;;;;;;5079683;28;20197;-90
2023/07/03 04:58:00;;;;;;;13.25;1.55;;;11.20;99.90;;;;;;5083732;28;20020;-90
2023/07/03 05:00:27;;;;;;;9.90;1.60;;;11.30;99.90;;;;;;5081718;28;20035;-91
2023/07/03 05:02:58;;;;;;;5.32;1.60;;;11.30;99.90;;;;;;5080204;28;20089;-90
2023/07/03 05:05:24;;;;;;;7.20;1.75;;;11.20;99.90;;;;;;5076795;28;20029;-90
2023/07/03 05:07:49;;;;;;;8.38;1.75;;;11.20;99.90;;;;;;5074128;28;20031;-90
2023/07/03 05:10:16;;;;;;;6.00;1.60;;;11.20;99.90;;;;;;5073479;28;20600;-91
2023/07/03 05:12:42;;;;;;;10.82;1.67;;;11.30;99.90;;;;;;5069587;28;20037;-90
2023/07/03 05:15:10;;;;;;;4.75;1.58;;;11.30;99.90;;;;;;5054546;28;20053;-91
2023/07/03 05:17:38;;;;;;;11.02;2.00;;;11.30;99.90;;;;;;5063756;28;20082;-90
2023/07/03 05:20:13;;;;;;;6.80;1.80;;;11.30;99.90;;;;;;5061483;28;20119;-90
2023/07/03 05:22:41;;;;;;;12.85;1.80;;;11.30;99.90;;;;;;5062633;28;20101;-91
2023/07/03 05:25:09;;;;;;;10.30;1.80;;;11.30;99.90;;;;;;5063345;28;20051;-89
2023/07/03 05:27:35;;;;;;;11.75;2.30;;;11.30;99.90;;;;;;5063027;28;20490;-88
2023/07/03 05:30:01;;;;;;;2.92;1.00;;;11.30;99.90;;;;;;5059928;28;20032;-89
2023/07/03 05:32:26;;;;;;;7.50;1.30;;;11.20;99.90;;;;;;5061931;28;20028;-89
2023/07/03 05:34:52;;;;;;;2.97;0.95;;;11.10;99.90;;;;;;5066917;28;20027;-89
2023/07/03 05:37:18;;;;;;;2.20;1.30;;;11.00;99.90;;;;;;5063405;28;20539;-88
2023/07/03 05:39:47;;;;;;;3.13;1.27;;;11.00;99.90;;;;;;5062981;28;20532;-90
2023/07/03 05:42:14;;;;;;;5.30;2.15;;;10.90;99.90;;;;;;5061726;28;20455;-91
2023/07/03 05:44:40;;;;;;;5.15;1.70;;;10.90;99.90;;;;;;5061153;28;20493;-91
2023/07/03 05:47:06;;;;;;;5.43;1.67;;;10.90;99.90;;;;;;5060502;28;20040;-90
2023/07/03 05:49:32;;;;;;;5.18;1.35;;;10.90;99.90;;;;;;5065440;28;20028;-91
2023/07/03 05:51:57;;;;;;;4.45;1.98;;;10.90;99.90;;;;;;5064089;28;20111;-91
2023/07/03 05:54:23;;;;;;;6.28;1.30;;;10.90;99.90;;;;;;5060443;28;20078;-92
2023/07/03 05:56:59;;;;;;;9.80;1.65;;;11.00;99.90;;;;;;5062435;28;20504;-90
2023/07/03 05:59:25;;;;;;;3.33;1.20;;;11.10;99.90;;;;;;5065563;28;20017;-91
2023/07/03 06:01:54;;;;;;;5.68;1.73;;;11.10;99.90;;;;;;5064194;28;20052;-92
2023/07/03 06:04:22;;;;;;;8.43;2.05;;;11.20;99.90;;;;;;5063331;28;20100;-90
2023/07/03 06:06:52;;;;;;;4.88;1.65;;;11.20;99.90;;;;;;5066072;28;20025;-90
2023/07/03 06:09:17;;;;;;;9.45;1.70;;;11.20;99.90;;;;;;5069415;28;20035;-90
2023/07/03 06:11:43;;;;;;;8.00;1.80;;;11.30;99.90;;;;;;5070386;28;20025;-91
2023/07/03 06:14:15;;;;;;;11.80;1.80;;;11.30;99.90;;;;;;5069118;28;20052;-92
2023/07/03 06:16:42;;;;;;;5.82;1.33;;;11.30;99.90;;;;;;5065931;28;20031;-91
2023/07/03 06:19:08;;;;;;;10.77;2.17;;;11.30;99.90;;;;;;5062169;28;20032;-92
2023/07/03 06:21:33;;;;;;;10.95;2.00;;;11.40;99.90;;;;;;5061043;28;20024;-92
2023/07/03 06:23:59;;;;;;;9.45;2.45;;;11.50;99.90;;;;;;5061406;28;20029;-92
2023/07/03 06:26:25;;;;;;;6.95;2.33;;;11.60;99.90;;;;;;5061325;28;20021;-91
2023/07/03 06:28:50;;;;;;;6.13;1.50;;;11.60;99.90;;;;;;5063190;28;20112;-92
2023/07/03 06:31:16;;;;;;;5.82;1.67;;;11.60;99.90;;;;;;5060345;28;20021;-91
2023/07/03 06:33:42;;;;;;;8.60;1.63;;;11.60;99.90;;;;;;5061542;28;20512;-91
2023/07/03 06:36:08;;;;;;;7.18;1.77;;;11.60;99.90;;;;;;5061988;28;20102;-91
2023/07/03 06:38:33;;;;;;;17.10;2.65;;;11.60;99.90;;;;;;5058274;28;20024;-90
2023/07/03 06:40:59;;;;;;;5.43;1.60;;;11.60;99.90;;;;;;5059347;28;20024;-89
2023/07/03 06:43:25;;;;;;;9.15;2.60;;;11.70;99.90;;;;;;5064310;28;20033;-90
2023/07/03 06:45:51;;;;;;;8.93;1.50;;;11.70;99.90;;;;;;5059686;28;20021;-91
2023/07/03 06:48:16;;;;;;;5.68;1.48;;;11.70;99.90;;;;;;5052790;28;20025;-89
2023/07/03 06:50:42;;;;;;;9.05;1.88;;;11.70;99.90;;;;;;5058640;28;20048;-91
2023/07/03 06:53:08;;;;;;;7.50;1.80;;;11.80;99.90;;;;;;5059539;28;20077;-92
2023/07/03 06:55:34;;;;;;;8.10;1.92;;;11.90;99.90;;;;;;5055627;28;20078;-90
2023/07/03 06:58:00;;;;;;;15.50;2.20;;;12.00;99.90;;;;;;5051860;28;20036;-91
2023/07/03 07:00:26;;;;;;;7.60;1.77;;;12.00;99.90;;;;;;5054670;28;20016;-91
2023/07/03 07:02:52;;;;;;;8.95;1.92;;;12.00;99.90;;;;;;5072829;28;20044;-91
2023/07/03 07:05:19;;;;;;;11.30;2.10;;;12.10;99.90;;;;;;5074550;28;20474;-92
2023/07/03 07:07:45;;;;;;;7.55;1.23;;;12.00;99.90;;;;;;5076615;28;20028;-93
2023/07/03 07:10:11;;;;;;;9.50;1.77;;;12.20;99.90;;;;;;5077687;28;20067;-91
2023/07/03 07:12:37;;;;;;;10.02;1.70;;;12.20;99.90;;;;;;5060850;28;20033;-91
2023/07/03 07:15:04;;;;;;;10.45;1.55;;;12.30;99.90;;;;;;5055400;28;20021;-90
2023/07/03 07:17:30;;;;;;;13.13;1.65;;;12.20;99.90;;;;;;5055334;28;20567;-93
2023/07/03 07:19:56;;;;;;;6.85;1.95;;;12.30;99.90;;;;;;5056083;28;20025;-93
2023/07/03 07:22:21;;;;;;;8.98;1.60;;;12.30;99.90;;;;;;5054868;28;20033;-91
2023/07/03 07:24:47;;;;;;;5.32;1.27;;;12.30;99.90;;;;;;5055120;28;20050;-92
2023/07/03 07:27:13;;;;;;;10.27;1.95;;;12.50;99.90;;;;;;5054712;28;20037;-92
2023/07/03 07:29:39;;;;;;;10.68;1.98;;;12.50;99.90;;;;;;5054957;28;20021;-91
2023/07/03 07:32:06;;;;;;;9.40;1.83;;;12.50;99.90;;;;;;5054541;28;20036;-92
2023/07/03 07:34:31;;;;;;;13.27;2.90;;;12.70;99.90;;;;;;5056531;28;20029;-92
2023/07/03 07:36:57;;;;;;;8.93;1.92;;;12.70;99.90;;;;;;5056047;28;20432;-93
2023/07/03 07:39:26;;;;;;;10.45;1.80;;;12.80;99.90;;;;;;5054654;28;20048;-93
2023/07/03 07:41:52;;;;;;;10.93;1.40;;;12.80;99.90;;;;;;5054801;28;20025;-93
2023/07/03 07:44:18;;;;;;;12.68;1.77;;;12.90;99.90;;;;;;5054573;28;20033;-95
2023/07/03 07:46:44;;;;;;;9.80;2.03;;;12.90;99.90;;;;;;5053638;28;20052;-93
2023/07/03 07:49:09;;;;;;;11.32;2.53;;;12.90;99.90;;;;;;5063606;28;20463;-93
2023/07/03 07:51:36;;;;;;;10.85;1.63;;;13.00;99.90;;;;;;5063086;28;20032;-93
2023/07/03 07:54:02;;;;;;;10.65;1.98;;;13.20;99.90;;;;;;5061195;28;20025;-92
2023/07/03 07:56:28;;;;;;;9.80;1.55;;;13.30;99.90;;;;;;5057885;28;20474;-91
2023/07/03 07:58:54;;;;;;;10.85;2.30;;;13.30;99.90;;;;;;5064734;28;20032;-92
2023/07/03 08:01:20;;;;;;;19.63;1.90;;;13.40;99.90;;;;;;5062717;28;20063;-90
2023/07/03 08:03:45;;;;;;;11.73;1.70;;;13.50;99.90;;;;;;5071909;28;20029;-91
2023/07/03 08:06:13;;;;;;;6.97;1.42;;;13.60;99.90;;;;;;5074835;28;20039;-91
2023/07/03 08:08:39;;;;;;;14.45;1.80;;;13.70;99.90;;;;;;5071765;28;20027;-92
2023/07/03 08:11:07;;;;;;;6.75;1.50;;;13.70;99.90;;;;;;5073469;28;20470;-93
2023/07/03 08:13:34;;;;;;;13.23;1.33;;;13.70;99.90;;;;;;5065803;28;20036;-90
2023/07/03 08:16:00;;;;;;;10.38;1.58;;;13.80;99.90;;;;;;5067387;28;20056;-91
2023/07/03 08:18:26;;;;;;;13.43;2.42;;;13.70;99.90;;;;;;5065465;28;20025;-93
2023/07/03 08:20:52;;;;;;;9.35;1.42;;;13.80;99.90;;;;;;5066886;28;20418;-94
2023/07/03 08:23:18;;;;;;;15.02;1.80;;;13.70;99.90;;;;;;5063693;28;20090;-94
2023/07/03 08:25:51;;;;;;;6.25;1.80;;;13.70;99.90;;;;;;5064976;28;20063;-93
2023/07/03 08:28:17;;;;;;;12.73;2.28;;;13.80;99.90;;;;;;5065263;28;20029;-93
2023/07/03 08:30:43;;;;;;;11.57;2.08;;;14.00;99.90;;;;;;5067144;28;20021;-94
2023/07/03 08:33:08;;;;;;;6.22;1.23;;;14.00;99.90;;;;;;5067537;28;20115;-94
2023/07/03 08:35:34;;;;;;;8.38;1.38;;;14.10;99.90;;;;;;5064467;28;20056;-94
2023/07/03 08:38:00;;;;;;;10.63;1.77;;;14.30;99.90;;;;;;5063568;28;20119;-91
2023/07/03 08:40:26;;;;;;;4.07;1.42;;;14.20;99.90;;;;;;5066620;28;20028;-92
2023/07/03 08:42:58;;;;;;;10.23;1.67;;;14.20;99.90;;;;;;5060245;28;20029;-92
2023/07/03 08:45:44;;;;;;;9.98;1.65;;;14.10;99.80;;;;;;5072483;28;20474;-94
2023/07/03 08:48:27;;;;;;;6.40;1.65;;;14.10;99.90;;;;;;5073924;28;20032;-93
2023/07/03 08:50:56;;;;;;;10.50;1.50;;;14.20;99.90;;;;;;5063948;28;20040;-95
2023/07/03 08:53:26;;;;;;;11.13;2.50;;;14.20;99.90;;;;;;5073615;28;20028;-95
2023/07/03 08:56:04;;;;;;;10.50;1.35;;;14.20;99.90;;;;;;5078970;28;20071;-91
2023/07/03 08:58:33;;;;;;;8.57;1.55;;;14.20;99.80;;;;;;5077274;28;20029;-95
2023/07/03 09:01:09;;;;;;;10.98;1.80;;;14.20;99.40;;;;;;5068051;28;20062;-91
2023/07/03 09:03:48;;;;;;;5.38;1.60;;;14.20;99.50;;;;;;5071218;28;20032;-93
2023/07/03 09:06:41;;;;;;;12.48;1.60;;;14.20;99.30;;;;;;5053644;28;20025;-93
2023/07/03 09:09:12;;;;;;;9.90;1.27;;;14.20;98.70;;;;;;5065432;28;20025;-94
2023/07/03 09:11:44;;;;;;;8.43;1.70;;;14.20;98.60;;;;;;5073361;28;20024;-95
2023/07/03 09:14:14;;;;;;;7.30;1.30;;;14.20;98.50;;;;;;5066617;28;20037;-94
2023/07/03 09:16:41;;;;;;;12.33;2.37;;;14.10;98.80;;;;;;5061261;28;20466;-94
2023/07/03 09:19:15;;;;;;;12.70;1.73;;;14.10;99.40;;;;;;5065274;28;20033;-94
2023/07/03 09:21:42;;;;;;;7.55;1.30;;;14.10;99.90;;;;;;5064036;28;20032;-95
2023/07/03 09:24:33;;;;;;;13.77;1.52;;;14.10;99.90;;;;;;5071701;28;20036;-94
2023/07/03 09:26:59;;;;;;;;;;;14.10;99.90;;;;;;5062136;28;20025;-93
2023/07/03 09:29:26;;;;;;;5.38;1.30;;;14.10;99.90;;;;;;5068207;28;19979;-92
2023/07/03 09:31:53;;;;;;;6.05;1.40;;;14.00;99.90;;;;;;5061488;28;20025;-94
2023/07/03 09:34:19;;;;;;;3.72;1.10;;;14.00;99.90;;;;;;5074322;28;20024;-95
2023/07/03 09:36:57;;;;;;;10.02;1.42;;;14.10;99.90;;;;;;5082133;28;20029;-92
2023/07/03 09:39:23;;;;;;;8.35;1.45;;;14.20;99.90;;;;;;5090223;28;20439;-90
2023/07/03 09:41:49;;;;;;;3.88;1.02;;;14.30;99.90;;;;;;5069038;28;20058;-92
2023/07/03 09:44:19;;;;;;;4.85;1.10;;;14.40;99.90;;;;;;5066136;28;20096;-93
2023/07/03 09:46:46;;;;;;;8.43;1.50;;;14.40;99.90;;;;;;5076953;28;20005;-92
2023/07/03 09:49:20;;;;;;;5.93;1.40;;;14.40;99.90;;;;;;5062255;28;20509;-94
2023/07/03 09:51:50;;;;;;;5.47;1.20;;;14.40;99.90;;;;;;5065183;28;20539;-93
2023/07/03 09:54:26;;;;;;;4.65;1.15;;;14.40;99.90;;;;;;5062589;28;20025;-93
2023/07/03 09:56:51;;;;;;;11.65;1.45;;;14.50;99.90;;;;;;5064253;28;20469;-95
2023/07/03 09:59:21;;;;;;;9.73;2.30;;;14.70;99.90;;;;;;5060791;28;20082;-94
2023/07/03 10:01:47;;;;;;;12.07;1.63;;;14.90;99.90;;;;;;5062851;28;20052;-92
2023/07/03 10:04:15;;;;;;;7.38;1.90;;;15.10;99.90;;;;;;5062495;28;20021;-91
2023/07/03 10:07:04;;;;;;;10.32;2.05;;;15.20;99.90;;;;;;5063705;28;20148;-92
2023/07/03 10:09:35;;;;;;;13.75;1.85;;;15.30;99.90;;;;;;5063158;28;20021;-94
2023/07/03 10:12:09;;;;;;;12.05;2.45;;;15.20;99.90;;;;;;5065837;28;20054;-95
2023/07/03 10:14:51;;;;;;;10.95;1.80;;;15.00;99.90;;;;;;5062738;28;20108;-94
2023/07/03 10:17:23;;;;;;;8.35;1.77;;;14.80;99.90;;;;;;5069302;28;20057;-94
2023/07/03 10:19:55;;;;;;;10.73;1.77;;;14.60;99.90;;;;;;5074719;28;20010;-88
2023/07/03 10:22:23;;;;;;;8.35;1.83;;;14.40;99.90;;;;;;5074759;28;20043;-91
2023/07/03 10:24:49;;;;;;;12.05;2.00;;;14.30;99.90;;;;;;5073724;28;20021;-90
2023/07/03 10:27:19;;;;;;;10.35;1.50;;;14.20;99.90;;;;;;5072296;28;20038;-91
2023/07/03 10:29:49;;;;;;;9.38;1.65;;;14.10;99.90;;;;;;5072891;28;20028;-90
2023/07/03 10:32:17;;;;;;;6.55;1.83;;;14.10;99.90;;;;;;5071866;28;20029;-91
2023/07/03 10:34:51;;;;;;;11.02;1.90;;;14.10;99.90;;;;;;5072256;28;20052;-91
2023/07/03 10:37:19;;;;;;;12.18;1.55;;;14.00;99.90;;;;;;5072728;28;20033;-91
2023/07/03 10:39:59;;;;;;;5.68;1.80;;;13.90;99.90;;;;;;5071626;28;20058;-94
2023/07/03 10:42:36;;;;;;;14.07;2.47;;;13.90;99.90;;;;;;5071619;28;20033;-92
2023/07/03 10:45:13;;;;;;;7.82;1.75;;;13.90;99.90;;;;;;5074317;28;20035;-92
2023/07/03 10:47:38;;;;;;;9.75;1.85;;;13.90;99.90;;;;;;5075341;28;20029;-92
2023/07/03 10:50:05;;;;;;;9.10;1.70;;;13.90;99.90;;;;;;5076921;28;20440;-92
2023/07/03 10:52:48;;;;;;;6.30;1.52;;;14.00;99.90;;;;;;5075369;28;20489;-92
2023/07/03 10:55:24;;;;;;;12.68;1.90;;;14.00;99.90;;;;;;5075174;28;20047;-93
2023/07/03 10:57:58;;;;;;;10.13;1.80;;;14.00;99.90;;;;;;5075346;28;20119;-91
2023/07/03 11:00:47;;;;;;;8.20;1.70;;;14.00;99.90;;;;;;5075796;28;20025;-93
2023/07/03 11:03:43;;;;;;;9.30;1.88;;;14.10;99.90;;;;;;5059188;28;20514;-92
2023/07/03 11:06:28;;;;;;;11.95;2.20;;;14.10;99.90;;;;;;5077736;28;20044;-91
2023/07/03 11:09:01;;;;;;;8.93;1.90;;;14.10;99.90;;;;;;5085833;28;20032;-93
2023/07/03 11:11:54;;;;;;;10.15;2.00;;;14.10;99.90;;;;;;5084790;28;20059;-90
2023/07/03 11:14:39;;;;;;;8.40;2.15;;;14.10;99.90;;;;;;5063721;28;20028;-93
2023/07/03 11:17:17;;;;;;;8.75;2.25;;;14.10;99.90;;;;;;5060311;28;20039;-92
2023/07/03 11:19:59;;;;;;;5.95;2.00;;;14.10;99.90;;;;;;5079258;28;20428;-90
2023/07/03 11:22:32;;;;;;;9.60;2.33;;;14.10;99.90;;;;;;5078799;28;20037;-92
2023/07/03 11:25:11;;;;;;;10.63;2.05;;;14.00;99.90;;;;;;5066974;28;20025;-92
2023/07/03 11:27:40;;;;;;;11.63;2.47;;;13.90;99.90;;;;;;5057825;28;20052;-92
2023/07/03 11:30:08;;;;;;;7.97;1.77;;;13.80;99.90;;;;;;5070042;28;20266;-92
2023/07/03 11:32:35;;;;;;;5.95;1.90;;;13.80;99.90;;;;;;5066109;28;20021;-91
2023/07/03 11:35:02;;;;;;;7.55;1.77;;;13.70;99.90;;;;;;5068522;28;20024;-92
2023/07/03 11:37:47;;;;;;;7.70;1.70;;;13.70;99.90;;;;;;5066851;28;20108;-91
2023/07/03 11:40:35;;;;;;;2.83;1.00;;;13.60;99.90;;;;;;5067221;28;20047;-92
2023/07/03 11:43:29;;;;;;;7.55;1.20;;;13.60;99.90;;;;;;5065996;28;20563;-92
2023/07/03 11:46:09;;;;;;;5.38;1.30;;;13.60;99.90;;;;;;5070244;28;20035;-91
2023/07/03 11:48:37;;;;;;;3.08;1.20;;;13.60;99.90;;;;;;5062659;28;20110;-90
2023/07/03 11:51:12;;;;;;;2.60;1.23;;;13.60;99.90;;;;;;5063647;28;20478;-94
2023/07/03 11:53:52;;;;;;;7.53;1.60;;;13.60;99.90;;;;;;5064924;28;20021;-92
2023/07/03 11:56:30;;;;;;;5.78;1.40;;;13.70;99.90;;;;;;5071277;28;20021;-92
2023/07/03 11:59:09;;;;;;;6.68;1.20;;;13.70;99.90;;;;;;5069163;28;20032;-91
2023/07/03 12:01:36;;;;;;;6.30;1.23;;;13.80;99.90;;;;;;5081480;28;20091;-92
2023/07/03 12:04:10;;;;;;;5.50;1.38;;;13.90;99.90;;;;;;5063961;28;20115;-92
2023/07/03 12:06:38;;;;;;;3.75;1.25;;;14.00;99.90;;;;;;5067350;28;20048;-92
2023/07/03 12:09:30;;;;;;;5.57;1.20;;;14.10;99.90;;;;;;5064073;28;20048;-94
2023/07/03 12:11:59;;;;;;;1.50;0.65;;;14.10;99.90;;;;;;5065814;28;20033;-93
2023/07/03 12:14:50;;;;;;;3.63;0.88;;;14.10;99.90;;;;;;5063294;28;20033;-93
2023/07/03 12:17:34;;;;;;;1.05;0.65;;;14.00;99.90;;;;;;5060307;28;20033;-91
2023/07/03 12:20:10;;;;;;;2.50;0.65;;;14.00;99.90;;;;;;5065255;28;20079;-93
2023/07/03 12:22:38;;;;;;;1.77;0.60;;;14.00;99.90;;;;;;5062918;28;20059;-93
2023/07/03 12:25:25;;;;;;;1.65;0.47;;;13.90;99.90;;;;;;5064495;28;20074;-91
2023/07/03 12:27:52;;;;;;;0.90;0.40;;;14.00;99.90;;;;;;5062751;28;20098;-94
2023/07/03 12:30:27;;;;;;;0.80;0.30;;;14.10;99.90;;;;;;5064186;28;20020;-93
2023/07/03 12:32:54;;;;;;;0.30;0.30;;;14.30;99.90;;;;;;5064251;28;20103;-92
2023/07/03 12:35:23;;;;;;;0.88;0.40;;;14.50;99.90;;;;;;5066889;28;20111;-92
2023/07/03 12:37:58;;;;;;;1.98;0.50;;;14.80;99.90;;;;;;5064599;28;20044;-93
2023/07/03 12:40:25;;;;;;;2.10;1.00;;;15.00;99.90;;;;;;5066562;28;20047;-93
2023/07/03 12:42:52;;;;;;;1.98;0.50;;;15.10;99.90;;;;;;5063467;28;20440;-94
2023/07/03 12:45:20;;;;;;;1.58;0.30;;;15.10;99.90;;;;;;5065387;28;20087;-94
2023/07/03 12:47:59;;;;;;;0.45;0.10;;;15.10;99.90;;;;;;5064060;28;20051;-92
2023/07/03 12:50:25;;;;;;;0.90;0.40;;;15.10;99.90;;;;;;5082986;28;20021;-93
2023/07/03 12:53:00;;;;;;;0.60;0.15;;;15.00;99.90;;;;;;5062622;28;20359;-93
2023/07/03 12:55:27;;;;;;;0.77;0.35;;;14.90;99.90;;;;;;5064888;28;20025;-93
2023/07/03 12:57:54;;;;;;;3.10;0.65;;;14.80;99.90;;;;;;5064746;28;20021;-93